WMT8PZ EDJA-LRCL
Flight info
| Callsign | WMT8PZ |
|---|---|
| Flight time | 1h 47m |
| Altitude | 37000 |
| Route | KPT4A KPT Z999 BEMKI L607 XEBIX Z2 UMVEG DCT DIMLO DCT MAVIR DCT NARKA DCT ATSOS |
| Aircraft | A320/M-SDE3FGHIRWY/LB1 |
Departure
| Time | 2026-04-24 06:45 |
|---|---|
| Airport | Memmingen Allgau Airport (EDJA) |
Arrival
| Time | 2026-04-24 08:32 |
|---|---|
| Airport | Avram Iancu Cluj International Airport (LRCL) |
| Time | Latitude | Longitude | Altitude | Speed | Heading |
|---|---|---|---|---|---|
| 2026-04-24 06:18 | 47.98867 | 10.23239 | 2079 ft | 0 kts | 44° |
| 2026-04-24 06:39 | 47.98868 | 10.23239 | 2079 ft | 1 kts | 44° |
| 2026-04-24 06:39 | 47.98873 | 10.23253 | 2079 ft | 2 kts | 65° |
| 2026-04-24 06:39 | 47.98867 | 10.23263 | 2077 ft | 0 kts | 149° |
| 2026-04-24 06:39 | 47.98856 | 10.23269 | 2075 ft | 3 kts | 156° |
| 2026-04-24 06:40 | 47.98838 | 10.23293 | 2078 ft | 4 kts | 112° |
| 2026-04-24 06:40 | 47.98843 | 10.23340 | 2080 ft | 5 kts | 72° |
| 2026-04-24 06:40 | 47.98851 | 10.23377 | 2081 ft | 3 kts | 71° |
| 2026-04-24 06:40 | 47.98858 | 10.23407 | 2083 ft | 3 kts | 71° |
| 2026-04-24 06:41 | 47.98867 | 10.23444 | 2083 ft | 6 kts | 70° |
| 2026-04-24 06:41 | 47.98889 | 10.23535 | 2080 ft | 13 kts | 70° |
| 2026-04-24 06:41 | 47.98913 | 10.23659 | 2079 ft | 10 kts | 89° |
| 2026-04-24 06:41 | 47.98881 | 10.23728 | 2082 ft | 8 kts | 146° |
| 2026-04-24 06:42 | 47.98827 | 10.23793 | 2080 ft | 11 kts | 114° |
| 2026-04-24 06:42 | 47.98863 | 10.23906 | 2079 ft | 14 kts | 59° |
| 2026-04-24 06:42 | 47.98922 | 10.24055 | 2075 ft | 19 kts | 60° |
| 2026-04-24 06:42 | 47.98996 | 10.24241 | 2073 ft | 22 kts | 59° |
| 2026-04-24 06:43 | 47.99080 | 10.24454 | 2072 ft | 25 kts | 60° |
| 2026-04-24 06:43 | 47.99171 | 10.24685 | 2071 ft | 27 kts | 59° |
| 2026-04-24 06:43 | 47.99255 | 10.24898 | 2070 ft | 10 kts | 68° |
| 2026-04-24 06:43 | 47.99286 | 10.24982 | 2068 ft | 3 kts | 347° |
| 2026-04-24 06:44 | 47.99281 | 10.24961 | 2068 ft | 2 kts | 241° |
| 2026-04-24 06:44 | 47.99268 | 10.24930 | 2069 ft | 11 kts | 239° |
| 2026-04-24 06:44 | 47.99099 | 10.24501 | 2072 ft | 82 kts | 239° |
| 2026-04-24 06:44 | 47.98709 | 10.23522 | 2084 ft | 134 kts | 239° |
| 2026-04-24 06:45 | 47.98181 | 10.22184 | 2385 ft | 151 kts | 239° |
| 2026-04-24 06:45 | 47.97660 | 10.20824 | 3052 ft | 152 kts | 239° |
| 2026-04-24 06:45 | 47.97132 | 10.19476 | 3643 ft | 153 kts | 239° |
| 2026-04-24 06:45 | 47.96561 | 10.18051 | 4106 ft | 167 kts | 240° |
| 2026-04-24 06:46 | 47.95937 | 10.16486 | 4339 ft | 189 kts | 240° |
| 2026-04-24 06:46 | 47.95149 | 10.14786 | 4593 ft | 212 kts | 223° |
| 2026-04-24 06:46 | 47.93760 | 10.13807 | 4873 ft | 237 kts | 184° |
| 2026-04-24 06:46 | 47.92055 | 10.14177 | 5244 ft | 261 kts | 165° |
| 2026-04-24 06:47 | 47.90253 | 10.14956 | 5889 ft | 274 kts | 162° |
| 2026-04-24 06:47 | 47.88415 | 10.15822 | 6720 ft | 280 kts | 161° |
| 2026-04-24 06:47 | 47.86546 | 10.16719 | 7533 ft | 284 kts | 161° |
| 2026-04-24 06:47 | 47.84644 | 10.17624 | 8357 ft | 289 kts | 162° |
| 2026-04-24 06:48 | 47.82713 | 10.18524 | 9184 ft | 293 kts | 162° |
| 2026-04-24 06:48 | 47.80746 | 10.19425 | 9956 ft | 297 kts | 163° |
| 2026-04-24 06:48 | 47.78729 | 10.20340 | 10483 ft | 312 kts | 162° |
| 2026-04-24 06:48 | 47.76599 | 10.21303 | 10703 ft | 335 kts | 162° |
| 2026-04-24 06:49 | 47.74290 | 10.22342 | 10868 ft | 358 kts | 162° |
| 2026-04-24 06:49 | 47.71849 | 10.23437 | 11223 ft | 372 kts | 162° |
| 2026-04-24 06:49 | 47.69321 | 10.24569 | 11832 ft | 378 kts | 162° |
| 2026-04-24 06:49 | 47.66821 | 10.25690 | 12468 ft | 382 kts | 162° |
| 2026-04-24 06:50 | 47.64258 | 10.26840 | 13109 ft | 387 kts | 162° |
| 2026-04-24 06:50 | 47.61668 | 10.28000 | 13747 ft | 391 kts | 162° |
| 2026-04-24 06:50 | 47.59045 | 10.29171 | 14357 ft | 395 kts | 162° |
| 2026-04-24 06:50 | 47.56459 | 10.30566 | 14890 ft | 397 kts | 153° |
| 2026-04-24 06:51 | 47.54066 | 10.32601 | 15473 ft | 397 kts | 142° |
| 2026-04-24 06:51 | 47.52589 | 10.34211 | 15874 ft | 398 kts | 141° |
| 2026-04-24 06:51 | 47.50360 | 10.36662 | 16449 ft | 400 kts | 141° |
| 2026-04-24 06:51 | 47.48124 | 10.39116 | 17065 ft | 402 kts | 141° |
| 2026-04-24 06:52 | 47.45867 | 10.41588 | 17684 ft | 405 kts | 141° |
| 2026-04-24 06:52 | 47.43635 | 10.44144 | 18294 ft | 405 kts | 135° |
| 2026-04-24 06:52 | 47.41716 | 10.47174 | 18827 ft | 404 kts | 124° |
| 2026-04-24 06:52 | 47.40207 | 10.50672 | 19343 ft | 403 kts | 114° |
| 2026-04-24 06:53 | 47.39168 | 10.54502 | 19860 ft | 402 kts | 103° |
| 2026-04-24 06:53 | 47.38556 | 10.58532 | 20364 ft | 403 kts | 98° |
| 2026-04-24 06:53 | 47.38000 | 10.62600 | 20818 ft | 405 kts | 98° |
| 2026-04-24 06:53 | 47.37437 | 10.66681 | 21278 ft | 407 kts | 98° |
| 2026-04-24 06:54 | 47.36866 | 10.70793 | 21734 ft | 410 kts | 98° |
| 2026-04-24 06:54 | 47.36287 | 10.74939 | 22179 ft | 414 kts | 98° |
| 2026-04-24 06:54 | 47.35702 | 10.79105 | 22606 ft | 417 kts | 98° |
| 2026-04-24 06:54 | 47.35111 | 10.83312 | 23050 ft | 419 kts | 98° |
| 2026-04-24 06:55 | 47.34514 | 10.87533 | 23500 ft | 422 kts | 98° |
| 2026-04-24 06:55 | 47.33911 | 10.91785 | 23901 ft | 425 kts | 98° |
| 2026-04-24 06:55 | 47.33306 | 10.96059 | 24240 ft | 427 kts | 98° |
| 2026-04-24 06:55 | 47.32696 | 11.00368 | 24596 ft | 429 kts | 98° |
| 2026-04-24 06:56 | 47.32092 | 11.04617 | 24946 ft | 431 kts | 98° |
| 2026-04-24 06:56 | 47.31469 | 11.08957 | 25298 ft | 433 kts | 98° |
| 2026-04-24 06:56 | 47.30835 | 11.13375 | 25653 ft | 435 kts | 98° |
| 2026-04-24 06:56 | 47.30215 | 11.17692 | 25987 ft | 437 kts | 98° |
| 2026-04-24 06:57 | 47.29582 | 11.22093 | 26328 ft | 439 kts | 98° |
| 2026-04-24 06:57 | 47.28947 | 11.26503 | 26673 ft | 441 kts | 98° |
| 2026-04-24 06:57 | 47.28309 | 11.30937 | 26985 ft | 443 kts | 98° |
| 2026-04-24 06:57 | 47.27664 | 11.35392 | 27318 ft | 445 kts | 98° |
| 2026-04-24 06:58 | 47.27013 | 11.39858 | 27717 ft | 446 kts | 98° |
| 2026-04-24 06:58 | 47.26359 | 11.44313 | 28237 ft | 444 kts | 98° |
| 2026-04-24 06:58 | 47.25707 | 11.48744 | 28766 ft | 442 kts | 98° |
| 2026-04-24 06:58 | 47.25079 | 11.53170 | 29290 ft | 440 kts | 97° |
| 2026-04-24 06:59 | 47.24543 | 11.57588 | 29816 ft | 438 kts | 95° |
| 2026-04-24 06:59 | 47.24073 | 11.62006 | 30348 ft | 436 kts | 94° |
| 2026-04-24 06:59 | 47.23640 | 11.66418 | 30792 ft | 435 kts | 94° |
| 2026-04-24 06:59 | 47.23210 | 11.70810 | 31249 ft | 433 kts | 94° |
| 2026-04-24 07:00 | 47.22767 | 11.75201 | 31678 ft | 433 kts | 94° |
| 2026-04-24 07:00 | 47.22307 | 11.79570 | 32134 ft | 432 kts | 95° |
| 2026-04-24 07:00 | 47.21835 | 11.83864 | 32521 ft | 431 kts | 95° |
| 2026-04-24 07:00 | 47.21344 | 11.88213 | 32974 ft | 430 kts | 95° |
| 2026-04-24 07:01 | 47.20862 | 11.92549 | 33427 ft | 429 kts | 95° |
| 2026-04-24 07:01 | 47.20417 | 11.96881 | 33894 ft | 427 kts | 94° |
| 2026-04-24 07:01 | 47.20002 | 12.01207 | 34338 ft | 426 kts | 94° |
| 2026-04-24 07:01 | 47.19602 | 12.05512 | 34719 ft | 425 kts | 94° |
| 2026-04-24 07:02 | 47.19199 | 12.09822 | 35094 ft | 424 kts | 94° |
| 2026-04-24 07:02 | 47.18793 | 12.14107 | 35442 ft | 423 kts | 94° |
| 2026-04-24 07:02 | 47.18377 | 12.18392 | 35833 ft | 422 kts | 94° |
| 2026-04-24 07:02 | 47.17955 | 12.22667 | 36160 ft | 422 kts | 94° |
| 2026-04-24 07:03 | 47.17527 | 12.26934 | 36527 ft | 421 kts | 95° |
| 2026-04-24 07:03 | 47.17099 | 12.31184 | 36891 ft | 420 kts | 95° |
| 2026-04-24 07:03 | 47.16672 | 12.35432 | 37152 ft | 421 kts | 95° |
| 2026-04-24 07:04 | 47.15811 | 12.44003 | 37211 ft | 427 kts | 95° |
| 2026-04-24 07:04 | 47.14943 | 12.52638 | 37197 ft | 428 kts | 94° |
| 2026-04-24 07:05 | 47.14063 | 12.61285 | 37192 ft | 428 kts | 94° |
| 2026-04-24 07:05 | 47.13170 | 12.69933 | 37174 ft | 428 kts | 94° |
| 2026-04-24 07:06 | 47.12270 | 12.78583 | 37171 ft | 428 kts | 94° |
| 2026-04-24 07:06 | 47.11372 | 12.87178 | 37181 ft | 428 kts | 94° |
| 2026-04-24 07:07 | 47.10466 | 12.95824 | 37189 ft | 429 kts | 94° |
| 2026-04-24 07:07 | 47.09096 | 13.08798 | 37182 ft | 429 kts | 94° |
| 2026-04-24 07:08 | 47.08174 | 13.17440 | 37174 ft | 429 kts | 95° |
| 2026-04-24 07:08 | 47.07231 | 13.26082 | 37191 ft | 429 kts | 95° |
| 2026-04-24 07:09 | 47.06283 | 13.34724 | 37191 ft | 429 kts | 95° |
| 2026-04-24 07:09 | 47.05337 | 13.43356 | 37184 ft | 428 kts | 95° |
| 2026-04-24 07:10 | 47.04394 | 13.51983 | 37171 ft | 428 kts | 95° |
| 2026-04-24 07:10 | 47.03444 | 13.60603 | 37163 ft | 428 kts | 95° |
| 2026-04-24 07:11 | 47.02480 | 13.69215 | 37183 ft | 428 kts | 95° |
| 2026-04-24 07:11 | 47.01500 | 13.77839 | 37174 ft | 428 kts | 95° |
| 2026-04-24 07:12 | 47.00520 | 13.86454 | 37170 ft | 428 kts | 95° |
| 2026-04-24 07:12 | 46.99537 | 13.95059 | 37163 ft | 428 kts | 95° |
| 2026-04-24 07:13 | 46.98548 | 14.03660 | 37161 ft | 428 kts | 95° |
| 2026-04-24 07:13 | 46.97550 | 14.12251 | 37181 ft | 428 kts | 94° |
| 2026-04-24 07:14 | 46.96546 | 14.20855 | 37180 ft | 428 kts | 95° |
| 2026-04-24 07:14 | 46.95544 | 14.29382 | 37180 ft | 428 kts | 95° |
| 2026-04-24 07:15 | 46.94525 | 14.38022 | 37173 ft | 428 kts | 95° |
| 2026-04-24 07:15 | 46.93508 | 14.46612 | 37197 ft | 428 kts | 94° |
| 2026-04-24 07:16 | 46.92480 | 14.55205 | 37176 ft | 429 kts | 94° |
| 2026-04-24 07:16 | 46.91443 | 14.63741 | 37168 ft | 429 kts | 94° |
| 2026-04-24 07:17 | 46.90395 | 14.72334 | 37155 ft | 429 kts | 94° |
| 2026-04-24 07:17 | 46.89348 | 14.80910 | 37153 ft | 428 kts | 94° |
| 2026-04-24 07:18 | 46.88298 | 14.89477 | 37159 ft | 429 kts | 94° |
| 2026-04-24 07:18 | 46.87234 | 14.98052 | 37143 ft | 429 kts | 94° |
| 2026-04-24 07:19 | 46.86166 | 15.06635 | 37139 ft | 429 kts | 94° |
| 2026-04-24 07:19 | 46.85088 | 15.15212 | 37139 ft | 430 kts | 94° |
| 2026-04-24 07:20 | 46.84004 | 15.23809 | 37138 ft | 430 kts | 95° |
| 2026-04-24 07:20 | 46.82917 | 15.32394 | 37155 ft | 430 kts | 94° |
| 2026-04-24 07:21 | 46.81822 | 15.40980 | 37153 ft | 431 kts | 95° |
| 2026-04-24 07:21 | 46.80712 | 15.49570 | 37153 ft | 431 kts | 95° |
| 2026-04-24 07:22 | 46.79594 | 15.58175 | 37148 ft | 431 kts | 95° |
| 2026-04-24 07:22 | 46.78483 | 15.66706 | 37178 ft | 431 kts | 95° |
| 2026-04-24 07:23 | 46.77362 | 15.75309 | 37172 ft | 431 kts | 95° |
| 2026-04-24 07:23 | 46.76224 | 15.83901 | 37168 ft | 432 kts | 95° |
| 2026-04-24 07:24 | 46.75083 | 15.92510 | 37168 ft | 432 kts | 95° |
| 2026-04-24 07:24 | 46.73939 | 16.01113 | 37162 ft | 432 kts | 95° |
| 2026-04-24 07:25 | 46.72788 | 16.09704 | 37166 ft | 432 kts | 95° |
| 2026-04-24 07:25 | 46.71637 | 16.18245 | 37160 ft | 432 kts | 95° |
| 2026-04-24 07:26 | 46.70470 | 16.26843 | 37158 ft | 432 kts | 95° |
| 2026-04-24 07:26 | 46.69290 | 16.35427 | 37159 ft | 432 kts | 95° |
| 2026-04-24 07:27 | 46.68724 | 16.44024 | 37182 ft | 420 kts | 81° |
| 2026-04-24 07:27 | 46.69657 | 16.52342 | 37178 ft | 415 kts | 74° |
| 2026-04-24 07:28 | 46.70713 | 16.60607 | 37177 ft | 415 kts | 75° |
| 2026-04-24 07:28 | 46.71752 | 16.68877 | 37166 ft | 415 kts | 75° |
| 2026-04-24 07:29 | 46.72782 | 16.77090 | 37166 ft | 415 kts | 75° |
| 2026-04-24 07:29 | 46.73811 | 16.85353 | 37150 ft | 414 kts | 75° |
| 2026-04-24 07:30 | 46.74842 | 16.93624 | 37166 ft | 414 kts | 75° |
| 2026-04-24 07:30 | 46.75867 | 17.01882 | 37160 ft | 414 kts | 75° |
| 2026-04-24 07:31 | 46.76879 | 17.10150 | 37157 ft | 414 kts | 75° |
| 2026-04-24 07:31 | 46.77884 | 17.18411 | 37154 ft | 414 kts | 75° |
| 2026-04-24 07:32 | 46.78892 | 17.26681 | 37152 ft | 414 kts | 75° |
| 2026-04-24 07:32 | 46.79904 | 17.34943 | 37180 ft | 414 kts | 75° |
| 2026-04-24 07:33 | 46.80903 | 17.43223 | 37168 ft | 414 kts | 75° |
| 2026-04-24 07:33 | 46.81878 | 17.51497 | 37160 ft | 413 kts | 75° |
| 2026-04-24 07:34 | 46.82841 | 17.59718 | 37151 ft | 413 kts | 75° |
| 2026-04-24 07:34 | 46.83819 | 17.68031 | 37146 ft | 413 kts | 75° |
| 2026-04-24 07:35 | 46.84784 | 17.76250 | 37134 ft | 413 kts | 75° |
| 2026-04-24 07:35 | 46.85743 | 17.84525 | 37154 ft | 414 kts | 75° |
| 2026-04-24 07:36 | 46.86697 | 17.92820 | 37143 ft | 414 kts | 75° |
| 2026-04-24 07:36 | 46.87487 | 17.99717 | 37138 ft | 414 kts | 75° |
| 2026-04-24 07:37 | 46.88441 | 18.08073 | 37129 ft | 414 kts | 75° |
| 2026-04-24 07:37 | 46.89380 | 18.16318 | 37123 ft | 414 kts | 75° |
| 2026-04-24 07:38 | 46.90311 | 18.24623 | 37122 ft | 414 kts | 75° |
| 2026-04-24 07:38 | 46.91236 | 18.32950 | 37131 ft | 414 kts | 75° |
| 2026-04-24 07:39 | 46.92164 | 18.41273 | 37122 ft | 415 kts | 75° |
| 2026-04-24 07:39 | 46.93084 | 18.49620 | 37114 ft | 415 kts | 75° |
| 2026-04-24 07:40 | 46.93993 | 18.57972 | 37112 ft | 416 kts | 75° |
| 2026-04-24 07:40 | 46.94890 | 18.66277 | 37100 ft | 416 kts | 75° |
| 2026-04-24 07:41 | 46.95796 | 18.74657 | 37122 ft | 417 kts | 76° |
| 2026-04-24 07:41 | 46.96693 | 18.83040 | 37110 ft | 417 kts | 76° |
| 2026-04-24 07:42 | 46.97584 | 18.91436 | 37094 ft | 417 kts | 76° |
| 2026-04-24 07:42 | 46.98469 | 18.99840 | 37089 ft | 417 kts | 76° |
| 2026-04-24 07:43 | 46.99351 | 19.08242 | 37086 ft | 417 kts | 76° |
| 2026-04-24 07:43 | 47.00230 | 19.16651 | 37092 ft | 418 kts | 76° |
| 2026-04-24 07:44 | 47.01096 | 19.25066 | 37112 ft | 418 kts | 76° |
| 2026-04-24 07:44 | 47.01957 | 19.33491 | 37095 ft | 418 kts | 76° |
| 2026-04-24 07:45 | 47.02809 | 19.41889 | 37084 ft | 419 kts | 76° |
| 2026-04-24 07:45 | 47.03663 | 19.50344 | 37085 ft | 419 kts | 76° |
| 2026-04-24 07:46 | 47.04511 | 19.58787 | 37075 ft | 419 kts | 76° |
| 2026-04-24 07:46 | 47.05351 | 19.67243 | 37094 ft | 419 kts | 76° |
| 2026-04-24 07:47 | 47.06182 | 19.75644 | 37112 ft | 419 kts | 76° |
| 2026-04-24 07:47 | 47.07007 | 19.84111 | 37100 ft | 419 kts | 76° |
| 2026-04-24 07:48 | 47.07822 | 19.92578 | 37090 ft | 419 kts | 76° |
| 2026-04-24 07:48 | 47.08633 | 20.01045 | 37079 ft | 419 kts | 76° |
| 2026-04-24 07:49 | 47.09446 | 20.09514 | 37068 ft | 419 kts | 76° |
| 2026-04-24 07:49 | 47.10257 | 20.17994 | 37076 ft | 419 kts | 76° |
| 2026-04-24 07:50 | 47.11055 | 20.26475 | 37079 ft | 419 kts | 76° |
| 2026-04-24 07:50 | 47.11838 | 20.34948 | 37073 ft | 419 kts | 76° |
| 2026-04-24 07:51 | 47.12625 | 20.43423 | 37066 ft | 419 kts | 76° |
| 2026-04-24 07:51 | 47.13408 | 20.51916 | 37064 ft | 420 kts | 77° |
| 2026-04-24 07:52 | 47.14176 | 20.60413 | 37062 ft | 420 kts | 77° |
| 2026-04-24 07:52 | 47.14937 | 20.68874 | 37059 ft | 420 kts | 77° |
| 2026-04-24 07:53 | 47.15701 | 20.77392 | 37060 ft | 420 kts | 77° |
| 2026-04-24 07:53 | 47.16460 | 20.85904 | 37060 ft | 420 kts | 77° |
| 2026-04-24 07:54 | 47.17212 | 20.94429 | 37055 ft | 420 kts | 77° |
| 2026-04-24 07:54 | 47.17956 | 21.02958 | 37055 ft | 421 kts | 77° |
| 2026-04-24 07:55 | 47.18689 | 21.11485 | 37079 ft | 421 kts | 77° |
| 2026-04-24 07:55 | 47.19416 | 21.20032 | 37068 ft | 421 kts | 77° |
| 2026-04-24 07:56 | 47.20135 | 21.28569 | 37059 ft | 421 kts | 77° |
| 2026-04-24 07:56 | 47.20857 | 21.37124 | 37055 ft | 421 kts | 77° |
| 2026-04-24 07:57 | 47.21565 | 21.45616 | 37055 ft | 421 kts | 77° |
| 2026-04-24 07:57 | 47.22268 | 21.54178 | 37052 ft | 421 kts | 77° |
| 2026-04-24 07:58 | 47.22968 | 21.62744 | 37080 ft | 421 kts | 77° |
| 2026-04-24 07:58 | 47.23664 | 21.71312 | 37067 ft | 422 kts | 77° |
| 2026-04-24 07:59 | 47.24358 | 21.79899 | 37059 ft | 423 kts | 78° |
| 2026-04-24 07:59 | 47.24038 | 21.88672 | 37017 ft | 440 kts | 96° |
| 2026-04-24 08:00 | 47.23117 | 21.93002 | 36757 ft | 447 kts | 103° |
| 2026-04-24 08:00 | 47.22028 | 21.97294 | 36490 ft | 447 kts | 103° |
| 2026-04-24 08:00 | 47.20948 | 22.01573 | 36258 ft | 447 kts | 103° |
| 2026-04-24 08:00 | 47.19871 | 22.05861 | 35908 ft | 448 kts | 103° |
| 2026-04-24 08:01 | 47.18790 | 22.10179 | 35153 ft | 451 kts | 103° |
| 2026-04-24 08:01 | 47.17703 | 22.14518 | 34360 ft | 455 kts | 103° |
| 2026-04-24 08:01 | 47.16600 | 22.18915 | 33413 ft | 460 kts | 103° |
| 2026-04-24 08:01 | 47.15486 | 22.23342 | 32535 ft | 462 kts | 103° |
| 2026-04-24 08:02 | 47.14368 | 22.27779 | 31593 ft | 465 kts | 104° |
| 2026-04-24 08:02 | 47.13240 | 22.32249 | 30644 ft | 469 kts | 104° |
| 2026-04-24 08:02 | 47.12111 | 22.36701 | 29612 ft | 473 kts | 104° |
| 2026-04-24 08:02 | 47.10958 | 22.41240 | 28445 ft | 476 kts | 105° |
| 2026-04-24 08:03 | 47.09790 | 22.45818 | 27296 ft | 479 kts | 105° |
| 2026-04-24 08:03 | 47.08614 | 22.50413 | 26072 ft | 483 kts | 105° |
| 2026-04-24 08:03 | 47.07426 | 22.55050 | 24845 ft | 488 kts | 105° |
| 2026-04-24 08:03 | 47.06234 | 22.59691 | 24047 ft | 482 kts | 105° |
| 2026-04-24 08:04 | 47.05050 | 22.64275 | 23060 ft | 479 kts | 105° |
| 2026-04-24 08:04 | 47.03877 | 22.68816 | 22199 ft | 472 kts | 105° |
| 2026-04-24 08:04 | 47.02722 | 22.73278 | 21361 ft | 465 kts | 106° |
| 2026-04-24 08:04 | 47.01576 | 22.77698 | 20498 ft | 461 kts | 106° |
| 2026-04-24 08:05 | 47.00442 | 22.82074 | 19655 ft | 457 kts | 106° |
| 2026-04-24 08:05 | 46.99331 | 22.86402 | 18840 ft | 452 kts | 105° |
| 2026-04-24 08:05 | 46.98338 | 22.90686 | 18028 ft | 446 kts | 103° |
| 2026-04-24 08:05 | 46.97440 | 22.94996 | 17221 ft | 438 kts | 102° |
| 2026-04-24 08:06 | 46.96613 | 22.99249 | 16534 ft | 431 kts | 101° |
| 2026-04-24 08:06 | 46.95810 | 23.03451 | 15846 ft | 425 kts | 101° |
| 2026-04-24 08:06 | 46.95005 | 23.07595 | 15185 ft | 420 kts | 101° |
| 2026-04-24 08:06 | 46.94187 | 23.11679 | 14565 ft | 417 kts | 102° |
| 2026-04-24 08:07 | 46.93355 | 23.15719 | 13904 ft | 413 kts | 102° |
| 2026-04-24 08:07 | 46.92513 | 23.19731 | 13209 ft | 409 kts | 103° |
| 2026-04-24 08:07 | 46.91679 | 23.23672 | 12538 ft | 404 kts | 103° |
| 2026-04-24 08:07 | 46.90854 | 23.27580 | 11860 ft | 399 kts | 103° |
| 2026-04-24 08:08 | 46.90042 | 23.31445 | 11209 ft | 395 kts | 103° |
| 2026-04-24 08:08 | 46.89249 | 23.35206 | 11018 ft | 377 kts | 103° |
| 2026-04-24 08:08 | 46.88492 | 23.38779 | 10897 ft | 360 kts | 103° |
| 2026-04-24 08:09 | 46.87062 | 23.45503 | 10647 ft | 333 kts | 103° |
| 2026-04-24 08:09 | 46.86414 | 23.48694 | 10511 ft | 320 kts | 98° |
| 2026-04-24 08:09 | 46.86142 | 23.51832 | 10394 ft | 304 kts | 86° |
| 2026-04-24 08:09 | 46.86302 | 23.54846 | 10233 ft | 292 kts | 74° |
| 2026-04-24 08:10 | 46.86837 | 23.57665 | 10142 ft | 287 kts | 65° |
| 2026-04-24 08:10 | 46.87479 | 23.60432 | 10036 ft | 288 kts | 66° |
| 2026-04-24 08:10 | 46.88111 | 23.63221 | 9649 ft | 293 kts | 66° |
| 2026-04-24 08:10 | 46.88741 | 23.66038 | 9274 ft | 288 kts | 67° |
| 2026-04-24 08:11 | 46.89358 | 23.68815 | 8647 ft | 285 kts | 66° |
| 2026-04-24 08:11 | 46.89976 | 23.71580 | 8161 ft | 288 kts | 66° |
| 2026-04-24 08:11 | 46.90593 | 23.74337 | 7720 ft | 283 kts | 66° |
| 2026-04-24 08:11 | 46.91198 | 23.77048 | 7167 ft | 279 kts | 66° |
| 2026-04-24 08:12 | 46.91799 | 23.79735 | 6662 ft | 277 kts | 66° |
| 2026-04-24 08:12 | 46.92405 | 23.82443 | 6187 ft | 283 kts | 67° |
| 2026-04-24 08:12 | 46.92658 | 23.85283 | 5713 ft | 288 kts | 93° |
| 2026-04-24 08:12 | 46.91907 | 23.87995 | 5127 ft | 293 kts | 126° |
| 2026-04-24 08:13 | 46.90336 | 23.89783 | 4584 ft | 292 kts | 159° |
| 2026-04-24 08:13 | 46.88442 | 23.90672 | 4505 ft | 280 kts | 164° |
| 2026-04-24 08:13 | 46.86617 | 23.91419 | 4316 ft | 265 kts | 175° |
| 2026-04-24 08:13 | 46.84869 | 23.91011 | 4057 ft | 250 kts | 210° |
| 2026-04-24 08:14 | 46.83595 | 23.89452 | 3843 ft | 231 kts | 242° |
| 2026-04-24 08:14 | 46.82987 | 23.87418 | 3580 ft | 211 kts | 257° |
| 2026-04-24 08:14 | 46.82549 | 23.85433 | 3303 ft | 198 kts | 258° |
| 2026-04-24 08:14 | 46.82148 | 23.83628 | 3078 ft | 176 kts | 258° |
| 2026-04-24 08:15 | 46.81791 | 23.82041 | 2839 ft | 153 kts | 258° |
| 2026-04-24 08:15 | 46.81479 | 23.80639 | 2626 ft | 141 kts | 258° |
| 2026-04-24 08:15 | 46.81183 | 23.79309 | 2450 ft | 133 kts | 260° |
| 2026-04-24 08:15 | 46.80899 | 23.78033 | 2266 ft | 131 kts | 261° |
| 2026-04-24 08:16 | 46.80619 | 23.76773 | 2091 ft | 133 kts | 258° |
| 2026-04-24 08:16 | 46.80330 | 23.75485 | 1936 ft | 133 kts | 257° |
| 2026-04-24 08:16 | 46.80048 | 23.74243 | 1733 ft | 129 kts | 259° |
| 2026-04-24 08:16 | 46.79764 | 23.72984 | 1552 ft | 131 kts | 259° |
| 2026-04-24 08:17 | 46.79484 | 23.71723 | 1403 ft | 130 kts | 258° |
| 2026-04-24 08:17 | 46.79206 | 23.70473 | 1190 ft | 130 kts | 259° |
| 2026-04-24 08:17 | 46.78926 | 23.69219 | 1066 ft | 130 kts | 256° |
| 2026-04-24 08:17 | 46.78641 | 23.67981 | 1170 ft | 138 kts | 257° |
| 2026-04-24 08:18 | 46.78328 | 23.66566 | 1782 ft | 154 kts | 256° |
| 2026-04-24 08:18 | 46.77996 | 23.65028 | 2590 ft | 164 kts | 257° |
| 2026-04-24 08:18 | 46.77617 | 23.63412 | 3222 ft | 177 kts | 257° |
| 2026-04-24 08:18 | 46.77178 | 23.61616 | 3529 ft | 199 kts | 257° |
| 2026-04-24 08:19 | 46.76710 | 23.59639 | 4095 ft | 209 kts | 257° |
| 2026-04-24 08:19 | 46.76241 | 23.57622 | 5009 ft | 210 kts | 257° |
| 2026-04-24 08:19 | 46.75760 | 23.55591 | 5862 ft | 215 kts | 257° |
| 2026-04-24 08:19 | 46.75245 | 23.53523 | 6212 ft | 217 kts | 257° |
| 2026-04-24 08:20 | 46.74717 | 23.51466 | 6297 ft | 216 kts | 257° |
| 2026-04-24 08:20 | 46.74358 | 23.50078 | 6306 ft | 216 kts | 256° |
| 2026-04-24 08:20 | 46.74012 | 23.48002 | 6301 ft | 205 kts | 280° |
| 2026-04-24 08:20 | 46.74463 | 23.46170 | 6311 ft | 193 kts | 314° |
| 2026-04-24 08:21 | 46.75581 | 23.45182 | 6305 ft | 192 kts | 348° |
| 2026-04-24 08:21 | 46.76919 | 23.45467 | 6312 ft | 211 kts | 22° |
| 2026-04-24 08:21 | 46.78191 | 23.46702 | 6313 ft | 225 kts | 31° |
| 2026-04-24 08:21 | 46.79434 | 23.48122 | 6310 ft | 227 kts | 32° |
| 2026-04-24 08:22 | 46.80668 | 23.49568 | 6313 ft | 227 kts | 32° |
| 2026-04-24 08:22 | 46.81899 | 23.51020 | 6307 ft | 228 kts | 32° |
| 2026-04-24 08:22 | 46.83133 | 23.52473 | 6310 ft | 228 kts | 32° |
| 2026-04-24 08:22 | 46.84366 | 23.53928 | 6314 ft | 228 kts | 32° |
| 2026-04-24 08:23 | 46.85597 | 23.55389 | 6302 ft | 228 kts | 32° |
| 2026-04-24 08:23 | 46.86730 | 23.57035 | 6288 ft | 236 kts | 50° |
| 2026-04-24 08:23 | 46.87369 | 23.59281 | 5978 ft | 243 kts | 66° |
| 2026-04-24 08:23 | 46.87871 | 23.61634 | 5682 ft | 242 kts | 66° |
| 2026-04-24 08:24 | 46.88371 | 23.63976 | 5417 ft | 240 kts | 66° |
| 2026-04-24 08:24 | 46.88865 | 23.66297 | 5139 ft | 239 kts | 67° |
| 2026-04-24 08:24 | 46.89361 | 23.68623 | 4860 ft | 239 kts | 67° |
| 2026-04-24 08:24 | 46.89853 | 23.70931 | 4610 ft | 237 kts | 67° |
| 2026-04-24 08:25 | 46.90347 | 23.73228 | 4303 ft | 237 kts | 68° |
| 2026-04-24 08:25 | 46.90848 | 23.75528 | 3969 ft | 237 kts | 66° |
| 2026-04-24 08:25 | 46.91352 | 23.77796 | 3715 ft | 233 kts | 66° |
| 2026-04-24 08:25 | 46.91861 | 23.80061 | 3367 ft | 235 kts | 66° |
| 2026-04-24 08:26 | 46.92366 | 23.82302 | 3148 ft | 235 kts | 67° |
| 2026-04-24 08:26 | 46.92854 | 23.84605 | 3013 ft | 237 kts | 75° |
| 2026-04-24 08:26 | 46.92723 | 23.87004 | 2995 ft | 239 kts | 109° |
| 2026-04-24 08:26 | 46.91798 | 23.88836 | 3001 ft | 221 kts | 144° |
| 2026-04-24 08:27 | 46.90438 | 23.89765 | 3019 ft | 214 kts | 164° |
| 2026-04-24 08:27 | 46.89022 | 23.90433 | 3001 ft | 214 kts | 165° |
| 2026-04-24 08:27 | 46.87614 | 23.91097 | 3019 ft | 206 kts | 166° |
| 2026-04-24 08:27 | 46.86299 | 23.91356 | 3038 ft | 175 kts | 188° |
| 2026-04-24 08:28 | 46.85174 | 23.91013 | 3001 ft | 160 kts | 209° |
| 2026-04-24 08:28 | 46.84237 | 23.90233 | 3013 ft | 154 kts | 226° |
| 2026-04-24 08:28 | 46.83526 | 23.89125 | 3010 ft | 146 kts | 244° |
| 2026-04-24 08:28 | 46.83090 | 23.87832 | 3013 ft | 140 kts | 259° |
| 2026-04-24 08:29 | 46.82790 | 23.86486 | 3010 ft | 138 kts | 259° |
| 2026-04-24 08:29 | 46.82490 | 23.85138 | 2998 ft | 139 kts | 260° |
| 2026-04-24 08:29 | 46.82189 | 23.83788 | 2968 ft | 140 kts | 261° |
| 2026-04-24 08:29 | 46.81889 | 23.82447 | 2836 ft | 138 kts | 261° |
| 2026-04-24 08:30 | 46.81592 | 23.81120 | 2689 ft | 136 kts | 259° |
| 2026-04-24 08:30 | 46.81297 | 23.79801 | 2512 ft | 138 kts | 259° |
| 2026-04-24 08:30 | 46.81001 | 23.78478 | 2342 ft | 136 kts | 259° |
| 2026-04-24 08:30 | 46.80709 | 23.77176 | 2143 ft | 135 kts | 261° |
| 2026-04-24 08:31 | 46.80412 | 23.75849 | 1956 ft | 139 kts | 257° |
| 2026-04-24 08:31 | 46.80115 | 23.74527 | 1766 ft | 136 kts | 257° |
| 2026-04-24 08:31 | 46.79822 | 23.73222 | 1557 ft | 141 kts | 252° |
| 2026-04-24 08:31 | 46.79516 | 23.71862 | 1409 ft | 140 kts | 256° |
| 2026-04-24 08:32 | 46.79212 | 23.70528 | 1188 ft | 138 kts | 257° |
| 2026-04-24 08:32 | 46.78918 | 23.69199 | 1052 ft | 136 kts | 255° |
| 2026-04-24 08:32 | 46.78687 | 23.68113 | 1043 ft | 78 kts | 250° |
| 2026-04-24 08:32 | 46.78589 | 23.67720 | 1043 ft | 20 kts | 252° |
| 2026-04-24 08:33 | 46.78545 | 23.67521 | 1043 ft | 21 kts | 252° |
| 2026-04-24 08:33 | 46.78501 | 23.67322 | 1043 ft | 18 kts | 251° |
| 2026-04-24 08:33 | 46.78432 | 23.67187 | 1043 ft | 18 kts | 188° |
| 2026-04-24 08:33 | 46.78345 | 23.67297 | 1043 ft | 16 kts | 114° |
| 2026-04-24 08:34 | 46.78356 | 23.67459 | 1043 ft | 17 kts | 77° |
| 2026-04-24 08:34 | 46.78392 | 23.67641 | 1043 ft | 20 kts | 71° |
| 2026-04-24 08:34 | 46.78434 | 23.67829 | 1043 ft | 19 kts | 72° |
| 2026-04-24 08:34 | 46.78477 | 23.68022 | 1043 ft | 21 kts | 71° |
| 2026-04-24 08:35 | 46.78526 | 23.68241 | 1043 ft | 24 kts | 71° |
| 2026-04-24 08:35 | 46.78575 | 23.68453 | 1043 ft | 22 kts | 72° |
| 2026-04-24 08:35 | 46.78611 | 23.68616 | 1043 ft | 16 kts | 72° |
| 2026-04-24 08:35 | 46.78647 | 23.68775 | 1043 ft | 16 kts | 72° |
| 2026-04-24 08:36 | 46.78684 | 23.68939 | 1043 ft | 18 kts | 72° |
| 2026-04-24 08:36 | 46.78715 | 23.69078 | 1043 ft | 8 kts | 71° |
| 2026-04-24 08:36 | 46.78736 | 23.69169 | 1043 ft | 11 kts | 72° |
| 2026-04-24 08:36 | 46.78706 | 23.69262 | 1043 ft | 11 kts | 161° |
| 2026-04-24 08:37 | 46.78634 | 23.69296 | 1043 ft | 8 kts | 161° |
| 2026-04-24 08:37 | 46.78576 | 23.69323 | 1043 ft | 9 kts | 162° |
| 2026-04-24 08:37 | 46.78530 | 23.69346 | 1043 ft | 5 kts | 161° |
| 2026-04-24 08:37 | 46.78509 | 23.69322 | 1043 ft | 5 kts | 242° |
| 2026-04-24 08:38 | 46.78502 | 23.69291 | 1043 ft | 3 kts | 251° |
| 2026-04-24 08:38 | 46.78498 | 23.69275 | 1043 ft | 0 kts | 251° |